Time;durP1;ratioP1;P1;durP2;ratioP2;P2;SDS_P1;SDS_P2;PMS_P1;PMS_P2;Temp;Humidity;BMP_temperature;BMP_pressure;BME280_temperature;BME280_humidity;BME280_pressure;Samples;Min_cycle;Max_cycle;Signal;HPM_P1;HPM_P2
2022/02/01 00:01:54;;;;;;;;;;;10.30;81.40;;;;;;5070840;28;20048;-58
2022/02/01 00:04:32;;;;;;;1.83;1.10;;;10.30;81.30;;;;;;5072307;28;20381;-58
2022/02/01 00:09:40;;;;;;;3.72;1.23;;;10.30;81.40;;;;;;5061529;28;20044;-59
2022/02/01 00:41:13;;;;;;;2.55;1.10;;;10.30;81.50;;;;;;5053317;28;20494;-60
2022/02/01 00:43:39;;;;;;;1.85;1.15;;;10.30;81.50;;;;;;5053485;28;20076;-58
2022/02/01 00:46:05;;;;;;;3.00;1.25;;;10.30;81.50;;;;;;5067304;28;20455;-57
2022/02/01 00:48:31;;;;;;;2.20;1.10;;;10.20;81.40;;;;;;5073268;28;20147;-58
2022/02/01 00:50:58;;;;;;;1.52;1.00;;;10.30;81.50;;;;;;5072983;28;20036;-58
2022/02/01 00:53:28;;;;;;;1.55;0.90;;;10.30;81.50;;;;;;5073228;28;20044;-59
2022/02/01 00:55:55;;;;;;;3.25;1.17;;;10.30;81.50;;;;;;5072242;28;20127;-58
2022/02/01 00:58:22;;;;;;;1.50;1.00;;;10.30;81.50;;;;;;5071570;28;20064;-58
2022/02/01 01:00:48;;;;;;;2.75;1.10;;;10.30;81.50;;;;;;5071241;28;20049;-58
2022/02/01 01:03:14;;;;;;;1.88;0.93;;;10.30;81.50;;;;;;5070220;28;20040;-57
2022/02/01 01:05:40;;;;;;;2.13;1.10;;;10.20;81.40;;;;;;5052717;28;20041;-58
2022/02/01 01:08:05;;;;;;;2.72;1.00;;;10.30;81.50;;;;;;5052996;28;20043;-58
2022/02/01 01:10:31;;;;;;;2.70;1.20;;;10.30;82.10;;;;;;5053916;28;20041;-58
2022/02/01 01:15:53;;;;;;;2.33;1.02;;;10.30;81.70;;;;;;4991023;28;20730;-57
2022/02/01 01:54:03;;;;;;;3.28;1.20;;;10.20;81.50;;;;;;4997922;28;20045;-58
2022/02/01 01:56:34;;;;;;;2.88;0.93;;;10.20;81.50;;;;;;5010845;28;20585;-58
2022/02/01 01:59:01;;;;;;;1.40;0.95;;;10.30;81.60;;;;;;5070982;28;20127;-58
2022/02/01 02:01:27;;;;;;;1.45;0.93;;;10.20;81.50;;;;;;5050985;28;20441;-58
2022/02/01 02:03:53;;;;;;;1.95;0.73;;;10.30;81.60;;;;;;5054710;28;20044;-58
2022/02/01 02:06:19;;;;;;;2.67;1.15;;;10.30;81.50;;;;;;5058504;28;20039;-58
2022/02/01 02:08:48;;;;;;;2.28;0.98;;;10.20;81.50;;;;;;5071534;28;20568;-58
2022/02/01 02:11:23;;;;;;;2.05;0.70;;;10.20;81.50;;;;;;5071870;28;20051;-59
2022/02/01 02:16:36;;;;;;;1.25;0.85;;;10.20;81.50;;;;;;5057704;28;20052;-58
2022/02/01 02:19:06;;;;;;;1.38;0.90;;;10.20;81.50;;;;;;5067186;28;20945;-59
2022/02/01 02:21:32;;;;;;;1.25;0.88;;;10.20;82.10;;;;;;5070879;28;20499;-58
2022/02/01 02:23:58;;;;;;;3.17;1.10;;;10.20;81.50;;;;;;5071480;28;20056;-58
2022/02/01 02:26:24;;;;;;;2.85;1.38;;;10.20;81.50;;;;;;5070029;28;20049;-57
2022/02/01 02:28:49;;;;;;;1.70;0.68;;;10.20;81.50;;;;;;5071575;28;20036;-57
2022/02/01 02:31:18;;;;;;;1.13;0.80;;;10.20;81.50;;;;;;5055793;28;20171;-58
2022/02/01 02:33:44;;;;;;;1.27;0.82;;;10.30;81.50;;;;;;5051895;28;20052;-58
2022/02/01 02:38:42;;;;;;;1.92;0.90;;;10.20;81.40;;;;;;5051681;28;20068;-58
2022/02/01 02:46:24;;;;;;;0.80;0.63;;;10.30;81.50;;;;;;5053113;28;20512;-58
2022/02/01 02:48:50;;;;;;;0.82;0.70;;;10.20;81.50;;;;;;5051865;28;20457;-58
2022/02/01 02:51:16;;;;;;;0.75;0.70;;;10.30;81.50;;;;;;5052082;28;20083;-58
2022/02/01 02:53:42;;;;;;;1.30;0.73;;;10.20;81.40;;;;;;5051800;28;20045;-58
2022/02/01 02:56:08;;;;;;;1.35;0.80;;;10.20;81.50;;;;;;5055146;28;20055;-58
2022/02/01 02:58:33;;;;;;;3.78;1.10;;;10.20;81.50;;;;;;5056683;28;20091;-58
2022/02/01 03:00:59;;;;;;;3.03;0.93;;;10.30;81.50;;;;;;5055348;28;20045;-58
2022/02/01 03:03:25;;;;;;;1.50;0.68;;;10.30;81.50;;;;;;5055245;28;20106;-58
2022/02/01 03:05:50;;;;;;;0.82;0.60;;;10.30;81.50;;;;;;5071880;28;20036;-57
2022/02/01 03:08:16;;;;;;;1.85;0.60;;;10.20;81.40;;;;;;5073271;28;20036;-58
2022/02/01 03:10:44;;;;;;;0.77;0.70;;;10.20;81.40;;;;;;5074498;28;20048;-57
2022/02/01 03:13:15;;;;;;;2.15;1.15;;;10.20;81.50;;;;;;5053855;28;20048;-58
2022/02/01 03:15:48;;;;;;;0.85;0.55;;;10.20;81.40;;;;;;5055219;28;20041;-58
2022/02/01 03:20:58;;;;;;;1.00;0.60;;;10.20;81.40;;;;;;5074654;28;20048;-58
2022/02/01 03:23:24;;;;;;;1.50;0.73;;;10.20;81.40;;;;;;5075099;28;20098;-57
2022/02/01 03:25:49;;;;;;;1.40;0.77;;;10.20;81.40;;;;;;5074394;28;20502;-58
2022/02/01 03:28:15;;;;;;;1.60;0.77;;;10.20;81.40;;;;;;5073284;28;20047;-57
2022/02/01 03:30:41;;;;;;;1.48;0.82;;;10.20;81.40;;;;;;5054982;28;20037;-58
2022/02/01 03:33:07;;;;;;;1.98;0.70;;;10.20;81.30;;;;;;5054501;28;20049;-58
2022/02/01 03:35:32;;;;;;;1.83;0.88;;;10.20;81.40;;;;;;5054274;28;20057;-58
2022/02/01 03:38:00;;;;;;;0.98;0.60;;;10.20;81.40;;;;;;5054512;28;20552;-58
2022/02/01 03:40:26;;;;;;;1.38;0.75;;;10.30;81.40;;;;;;5055421;28;20052;-58
2022/02/01 03:42:51;;;;;;;2.08;0.70;;;10.20;81.30;;;;;;5054391;28;20045;-58
2022/02/01 03:45:17;;;;;;;1.27;0.88;;;10.20;81.30;;;;;;5055322;28;20045;-58
2022/02/01 03:47:43;;;;;;;1.35;0.85;;;10.20;81.40;;;;;;5055778;28;20051;-58
2022/02/01 03:50:08;;;;;;;1.17;0.77;;;10.20;81.40;;;;;;5072487;28;20051;-58
2022/02/01 03:52:35;;;;;;;1.83;1.13;;;10.20;81.40;;;;;;5074576;28;20041;-58
2022/02/01 03:55:01;;;;;;;1.67;0.73;;;10.20;81.40;;;;;;5074002;28;20048;-58
2022/02/01 03:57:26;;;;;;;1.80;0.55;;;10.20;82.00;;;;;;5073707;28;20561;-58
2022/02/01 03:59:52;;;;;;;1.58;0.77;;;10.30;81.40;;;;;;5065078;28;20073;-57
2022/02/01 04:02:18;;;;;;;1.35;0.73;;;10.30;81.40;;;;;;5055023;28;20370;-58
2022/02/01 04:04:47;;;;;;;0.90;0.50;;;10.20;81.30;;;;;;5055037;28;20048;-59
2022/02/01 04:07:13;;;;;;;1.33;0.60;;;10.20;81.40;;;;;;5053857;28;20041;-57
2022/02/01 04:09:38;;;;;;;2.33;0.85;;;10.20;81.40;;;;;;5055358;28;20037;-58
2022/02/01 04:12:06;;;;;;;0.98;0.88;;;10.30;81.40;;;;;;5070797;28;20531;-58
2022/02/01 04:14:34;;;;;;;2.35;0.77;;;10.20;81.40;;;;;;5067466;28;20040;-58
2022/02/01 04:17:02;;;;;;;0.63;0.50;;;10.20;81.30;;;;;;5054187;28;20095;-57
2022/02/01 04:19:30;;;;;;;0.77;0.60;;;10.20;81.30;;;;;;5064002;28;20124;-58
2022/02/01 04:22:03;;;;;;;0.55;0.50;;;10.20;81.30;;;;;;5071888;28;20048;-58
2022/02/01 04:24:30;;;;;;;1.33;0.65;;;10.20;81.30;;;;;;5055799;28;20128;-59
2022/02/01 04:26:56;;;;;;;0.93;0.50;;;10.20;81.30;;;;;;5063632;28;20047;-58
2022/02/01 04:29:22;;;;;;;1.77;0.80;;;10.20;81.30;;;;;;5062796;28;20075;-57
2022/02/01 04:31:48;;;;;;;1.17;0.50;;;10.20;81.40;;;;;;5071998;28;20056;-57
2022/02/01 04:34:14;;;;;;;0.75;0.60;;;10.20;81.30;;;;;;5073012;28;20049;-58
2022/02/01 04:36:40;;;;;;;1.33;0.82;;;10.20;81.30;;;;;;5073202;28;20052;-58
2022/02/01 04:39:06;;;;;;;0.73;0.60;;;10.20;81.30;;;;;;5073120;28;20048;-59
2022/02/01 04:41:32;;;;;;;1.45;0.77;;;10.20;81.30;;;;;;5073256;28;20070;-58
2022/02/01 04:43:58;;;;;;;0.52;0.50;;;10.20;81.30;;;;;;5071744;28;20036;-58
2022/02/01 04:46:24;;;;;;;1.98;0.50;;;10.20;81.30;;;;;;5055184;28;20408;-58
2022/02/01 04:48:51;;;;;;;1.55;0.77;;;10.20;81.30;;;;;;5052099;28;20052;-58
2022/02/01 04:51:19;;;;;;;1.63;0.95;;;10.20;81.30;;;;;;5057094;28;20070;-59
2022/02/01 04:53:46;;;;;;;1.55;0.70;;;10.20;81.30;;;;;;5068387;28;20079;-58
2022/02/01 04:56:13;;;;;;;0.80;0.57;;;10.20;81.30;;;;;;5062588;28;20050;-59
2022/02/01 04:58:39;;;;;;;1.40;0.70;;;10.20;81.30;;;;;;5068280;28;20056;-59
2022/02/01 05:01:04;;;;;;;0.98;0.80;;;10.20;81.40;;;;;;5072137;28;20032;-59
2022/02/01 05:03:30;;;;;;;1.25;0.70;;;10.20;81.30;;;;;;5072325;28;20090;-58
2022/02/01 05:05:56;;;;;;;1.20;0.60;;;10.20;81.30;;;;;;5072049;28;20040;-59
2022/02/01 05:08:24;;;;;;;1.05;0.75;;;10.30;81.40;;;;;;5072399;28;20094;-58
2022/02/01 05:10:50;;;;;;;0.50;0.50;;;10.20;81.40;;;;;;5071135;28;20040;-59
2022/02/01 05:16:06;;;;;;;1.08;0.75;;;10.20;81.30;;;;;;5053900;28;20045;-59
2022/02/01 05:18:42;;;;;;;3.15;0.70;;;10.20;81.40;;;;;;5052292;28;20045;-58
2022/02/01 05:21:21;;;;;;;1.35;0.65;;;10.20;81.40;;;;;;5056879;28;20037;-59
2022/02/01 05:23:48;;;;;;;1.02;0.60;;;10.20;81.40;;;;;;5071861;28;20401;-58
2022/02/01 05:26:14;;;;;;;0.85;0.60;;;10.20;81.40;;;;;;5070942;28;20409;-60
2022/02/01 05:28:41;;;;;;;1.60;0.95;;;10.30;81.50;;;;;;5064029;28;20049;-58
2022/02/01 05:31:07;;;;;;;1.95;0.70;;;10.20;81.40;;;;;;5052328;28;20489;-58
2022/02/01 05:33:33;;;;;;;0.80;0.60;;;10.20;81.30;;;;;;5052731;28;20401;-58
2022/02/01 05:36:01;;;;;;;1.40;0.85;;;10.20;81.40;;;;;;5052351;28;20049;-58
2022/02/01 05:38:28;;;;;;;0.52;0.40;;;10.20;81.40;;;;;;5053456;28;20086;-58
2022/02/01 05:40:54;;;;;;;1.85;0.47;;;10.20;81.40;;;;;;5052791;28;20428;-60
2022/02/01 05:43:24;;;;;;;0.65;0.55;;;10.20;82.00;;;;;;5052426;28;20173;-58
2022/02/01 05:45:51;;;;;;;1.70;0.80;;;10.20;81.40;;;;;;5070580;28;20052;-59
2022/02/01 05:48:18;;;;;;;2.00;0.73;;;10.20;81.40;;;;;;5071562;28;20450;-58
2022/02/01 05:50:46;;;;;;;1.15;0.55;;;10.20;81.40;;;;;;5071330;28;20395;-58
2022/02/01 05:53:12;;;;;;;1.60;0.90;;;10.20;81.40;;;;;;5064856;28;20116;-58
2022/02/01 05:55:38;;;;;;;1.15;0.60;;;10.20;81.40;;;;;;5071132;28;20457;-58
2022/02/01 05:58:04;;;;;;;0.73;0.63;;;10.20;81.30;;;;;;5072629;28;20123;-59
2022/02/01 06:00:29;;;;;;;1.67;0.70;;;10.20;81.40;;;;;;5069548;28;20044;-61
2022/02/01 06:02:55;;;;;;;1.90;0.50;;;10.20;81.40;;;;;;5066722;28;20405;-58
2022/02/01 06:05:21;;;;;;;2.67;0.80;;;10.20;81.40;;;;;;5053361;28;20077;-59
2022/02/01 06:07:46;;;;;;;2.22;0.70;;;10.20;81.40;;;;;;5052229;28;20446;-58
2022/02/01 06:10:13;;;;;;;1.48;0.70;;;10.20;81.40;;;;;;5053458;28;20393;-60
2022/02/01 06:12:40;;;;;;;1.27;0.60;;;10.20;81.40;;;;;;5052049;28;20041;-58
2022/02/01 06:15:07;;;;;;;3.17;0.82;;;10.20;81.40;;;;;;5064787;28;20052;-59
2022/02/01 06:17:32;;;;;;;1.23;0.70;;;10.20;81.40;;;;;;5069910;28;20055;-59
2022/02/01 06:19:59;;;;;;;1.75;0.75;;;10.20;81.30;;;;;;5052031;28;20489;-58
2022/02/01 06:22:24;;;;;;;2.55;1.00;;;10.20;81.40;;;;;;5053349;28;20049;-58
2022/02/01 06:24:51;;;;;;;2.10;0.52;;;10.20;81.30;;;;;;5065055;28;20477;-59
2022/02/01 06:27:17;;;;;;;1.35;0.82;;;10.20;81.40;;;;;;5072068;28;20048;-60
2022/02/01 06:29:43;;;;;;;1.90;0.70;;;10.20;81.40;;;;;;5067360;28;20106;-58
2022/02/01 06:32:08;;;;;;;1.30;0.68;;;10.10;81.30;;;;;;5056628;28;20428;-60
2022/02/01 06:34:34;;;;;;;2.15;1.15;;;10.20;81.40;;;;;;5055374;28;20087;-59
2022/02/01 06:37:00;;;;;;;1.33;0.75;;;10.20;81.40;;;;;;5055866;28;20131;-58
2022/02/01 06:39:27;;;;;;;1.38;0.60;;;10.20;81.40;;;;;;5055552;28;20033;-59
2022/02/01 06:41:53;;;;;;;2.15;1.05;;;10.20;81.30;;;;;;5056577;28;20542;-59
2022/02/01 06:44:19;;;;;;;2.90;0.90;;;10.20;81.40;;;;;;5055927;28;20120;-58
2022/02/01 06:46:45;;;;;;;1.30;0.60;;;10.20;81.40;;;;;;5055038;28;20471;-58
2022/02/01 06:49:11;;;;;;;0.90;0.75;;;10.20;81.30;;;;;;5055860;28;20047;-58
2022/02/01 06:51:40;;;;;;;1.05;0.80;;;10.20;81.40;;;;;;5055644;28;20044;-58
2022/02/01 06:54:06;;;;;;;2.05;0.75;;;10.20;81.40;;;;;;5056459;28;20060;-58
2022/02/01 06:56:33;;;;;;;0.63;0.50;;;10.20;81.30;;;;;;5064203;28;20066;-58
2022/02/01 06:59:06;;;;;;;0.77;0.60;;;10.20;81.40;;;;;;5075055;28;20052;-61
2022/02/01 07:01:33;;;;;;;1.77;0.82;;;10.20;81.30;;;;;;5074927;28;20070;-58
2022/02/01 07:04:01;;;;;;;0.80;0.73;;;10.20;81.40;;;;;;5073748;28;20434;-61
2022/02/01 07:06:30;;;;;;;2.47;1.05;;;10.20;81.40;;;;;;5057215;28;20045;-61
2022/02/01 07:08:57;;;;;;;3.88;1.20;;;10.20;81.40;;;;;;5073530;28;20044;-58
2022/02/01 07:11:23;;;;;;;1.08;0.70;;;10.20;81.40;;;;;;5063468;28;20041;-60
2022/02/01 07:13:49;;;;;;;1.75;0.80;;;10.30;81.50;;;;;;5074852;28;20173;-58
2022/02/01 07:16:17;;;;;;;1.00;0.85;;;10.20;81.40;;;;;;5073809;28;20052;-60
2022/02/01 07:18:42;;;;;;;1.05;0.80;;;10.20;81.40;;;;;;5074452;28;20036;-60
2022/02/01 07:21:08;;;;;;;2.70;0.82;;;10.20;81.40;;;;;;5074567;28;20098;-61
2022/02/01 07:23:34;;;;;;;1.40;0.90;;;10.20;81.40;;;;;;5074315;28;20033;-58
2022/02/01 07:26:01;;;;;;;1.48;0.80;;;10.20;81.40;;;;;;5073705;28;20056;-59
2022/02/01 07:28:28;;;;;;;1.63;0.77;;;10.20;81.40;;;;;;5072011;28;20393;-62
2022/02/01 07:30:55;;;;;;;1.88;0.80;;;10.20;81.40;;;;;;5056807;28;20103;-62
2022/02/01 07:33:21;;;;;;;3.10;0.98;;;10.20;81.40;;;;;;5054758;28;20037;-67
2022/02/01 07:35:48;;;;;;;2.38;1.00;;;10.20;81.40;;;;;;5064652;28;20480;-64
2022/02/01 07:38:21;;;;;;;1.08;0.57;;;10.20;81.40;;;;;;5071506;28;20045;-64
2022/02/01 07:40:51;;;;;;;2.08;0.88;;;10.20;81.40;;;;;;5073638;28;20119;-64
2022/02/01 07:43:18;;;;;;;1.23;0.82;;;10.20;81.30;;;;;;5070696;28;20040;-63
2022/02/01 07:45:45;;;;;;;2.42;0.80;;;10.20;81.40;;;;;;5074773;28;20053;-64
2022/02/01 07:48:11;;;;;;;2.28;0.95;;;10.20;81.40;;;;;;5074088;28;20119;-65
2022/02/01 07:50:40;;;;;;;2.60;0.88;;;10.20;81.30;;;;;;5070764;28;20091;-60
2022/02/01 07:53:10;;;;;;;3.47;1.50;;;10.20;81.40;;;;;;5055123;28;20056;-63
2022/02/01 07:55:36;;;;;;;1.90;0.90;;;10.20;81.30;;;;;;5053931;28;20073;-64
2022/02/01 07:58:03;;;;;;;1.80;0.85;;;10.20;81.30;;;;;;5062085;28;20066;-64
2022/02/01 08:00:29;;;;;;;1.55;0.98;;;10.20;81.30;;;;;;5054325;28;20055;-63
2022/02/01 08:02:55;;;;;;;2.15;0.95;;;10.20;81.30;;;;;;5054137;28;20052;-61
2022/02/01 08:05:24;;;;;;;3.47;1.00;;;10.20;81.30;;;;;;5055336;28;20405;-63
2022/02/01 08:07:54;;;;;;;1.17;0.90;;;10.20;81.30;;;;;;5054121;28;20080;-63
2022/02/01 08:10:20;;;;;;;1.67;1.10;;;10.20;81.40;;;;;;5054085;28;20128;-62
2022/02/01 08:20:31;;;;;;;1.30;1.02;;;10.20;81.30;;;;;;5054003;28;20493;-66
2022/02/01 08:25:25;;;;;;;2.00;1.00;;;10.20;81.40;;;;;;5071963;28;20044;-63
2022/02/01 08:27:56;;;;;;;2.13;1.30;;;10.20;81.30;;;;;;5066099;28;20059;-59
2022/02/01 08:30:23;;;;;;;1.90;1.25;;;10.20;81.30;;;;;;5071003;28;20543;-64
2022/02/01 08:32:49;;;;;;;2.33;1.20;;;10.20;81.30;;;;;;5073044;28;20580;-60
2022/02/01 08:35:15;;;;;;;1.77;1.23;;;10.20;81.30;;;;;;5066551;28;20088;-61
2022/02/01 08:37:41;;;;;;;1.67;1.27;;;10.20;81.30;;;;;;5053750;28;20086;-63
2022/02/01 08:40:08;;;;;;;2.30;1.30;;;10.20;81.30;;;;;;5053442;28;20477;-62
2022/02/01 08:42:34;;;;;;;2.35;1.27;;;10.20;81.30;;;;;;5067576;28;20480;-59
2022/02/01 08:45:02;;;;;;;1.30;1.10;;;10.20;81.30;;;;;;5073150;28;20050;-63
2022/02/01 08:47:28;;;;;;;2.80;1.23;;;10.20;81.30;;;;;;5071847;28;20127;-63
2022/02/01 08:49:53;;;;;;;2.47;1.55;;;10.20;81.30;;;;;;5053790;28;20149;-63
2022/02/01 08:52:38;;;;;;;2.00;1.08;;;10.20;81.30;;;;;;5051309;28;20509;-65
2022/02/01 08:55:07;;;;;;;2.47;1.20;;;10.20;81.30;;;;;;5052956;28;20045;-63
2022/02/01 08:57:32;;;;;;;2.05;1.38;;;10.20;81.30;;;;;;5054094;28;20040;-61
2022/02/01 09:00:07;;;;;;;1.67;1.35;;;10.20;81.40;;;;;;5058682;28;20044;-63
2022/02/01 09:02:33;;;;;;;2.05;1.10;;;10.20;81.30;;;;;;5073010;28;20408;-63
2022/02/01 09:04:59;;;;;;;2.65;1.10;;;10.10;81.30;;;;;;5057255;28;20052;-64
2022/02/01 09:07:25;;;;;;;1.83;1.10;;;10.20;81.40;;;;;;5053914;28;20029;-64
2022/02/01 09:09:51;;;;;;;2.63;1.35;;;10.20;81.30;;;;;;5053281;28;20707;-64
2022/02/01 09:12:18;;;;;;;1.55;1.13;;;10.20;81.30;;;;;;5058814;28;20037;-62
2022/02/01 09:14:46;;;;;;;3.05;1.15;;;10.20;81.30;;;;;;5064952;28;20127;-63
2022/02/01 09:17:15;;;;;;;2.13;1.20;;;10.20;81.30;;;;;;5072759;28;20119;-64
2022/02/01 09:19:42;;;;;;;2.22;1.15;;;10.20;81.40;;;;;;5072340;28;20047;-63
2022/02/01 09:22:08;;;;;;;3.38;1.33;;;10.20;81.40;;;;;;5070678;28;20524;-60
2022/02/01 09:24:33;;;;;;;2.00;1.15;;;10.20;81.40;;;;;;5068678;28;20032;-61
2022/02/01 09:27:00;;;;;;;1.48;1.05;;;10.20;81.40;;;;;;5054256;28;20048;-60
2022/02/01 09:38:12;;;;;;;1.83;1.23;;;10.20;81.30;;;;;;5433793;22;20836;-57
2022/02/01 09:40:45;;;;;;;3.67;1.52;;;10.30;81.40;;;;;;5004249;28;20050;-52
2022/02/01 09:43:12;;;;;;;1.85;1.40;;;10.20;81.40;;;;;;4989805;28;20084;-57
2022/02/01 09:45:38;;;;;;;1.92;1.20;;;10.20;81.40;;;;;;4997606;28;20046;-56
2022/02/01 09:48:05;;;;;;;2.25;1.40;;;10.20;81.40;;;;;;5008041;28;20049;-57
2022/02/01 09:50:31;;;;;;;2.33;1.20;;;10.20;81.40;;;;;;5009588;28;20042;-55
2022/02/01 09:52:57;;;;;;;2.50;1.10;;;10.20;81.40;;;;;;4997643;28;20054;-58
2022/02/01 09:55:22;;;;;;;2.28;1.17;;;10.20;81.40;;;;;;5009285;28;20042;-52
2022/02/01 09:57:56;;;;;;;2.17;1.35;;;10.20;81.40;;;;;;5007547;28;20042;-55
2022/02/01 10:00:23;;;;;;;1.67;1.08;;;10.30;81.40;;;;;;5007628;28;20129;-57
2022/02/01 10:02:54;;;;;;;1.13;0.98;;;10.20;81.40;;;;;;5006463;28;20600;-56
2022/02/01 10:05:20;;;;;;;2.92;1.17;;;10.20;81.40;;;;;;5010536;28;20045;-58
2022/02/01 10:07:50;;;;;;;0.93;0.80;;;10.20;81.40;;;;;;5009397;28;20130;-55
2022/02/01 10:10:17;;;;;;;1.45;1.10;;;10.20;81.40;;;;;;4997976;28;20049;-57
2022/02/01 10:12:43;;;;;;;2.17;1.10;;;10.20;81.40;;;;;;4994489;28;20113;-58
2022/02/01 10:15:23;;;;;;;1.67;1.08;;;10.20;81.40;;;;;;4999123;28;20034;-56
2022/02/01 10:17:56;;;;;;;1.73;1.20;;;10.20;81.40;;;;;;5009432;28;20053;-56
2022/02/01 10:20:43;;;;;;;1.60;1.20;;;10.20;81.40;;;;;;5009256;28;20068;-61
2022/02/01 10:23:21;;;;;;;1.95;1.38;;;10.20;81.40;;;;;;5021708;28;20065;-60
2022/02/01 10:26:07;;;;;;;2.53;1.05;;;10.20;81.40;;;;;;5011371;28;20070;-56
2022/02/01 10:31:52;;;;;;;1.42;1.00;;;10.20;81.40;;;;;;5012082;28;20050;-56
2022/02/01 10:34:39;;;;;;;2.08;1.02;;;10.20;81.40;;;;;;5008714;28;20038;-62
2022/02/01 10:37:25;;;;;;;1.90;0.90;;;10.20;81.40;;;;;;4991105;28;20058;-63
2022/02/01 10:40:02;;;;;;;5.38;1.40;;;10.30;81.50;;;;;;5010169;28;20050;-63
2022/02/01 10:42:28;;;;;;;2.40;1.00;;;10.20;81.40;;;;;;5011736;28;20060;-62
2022/02/01 10:44:56;;;;;;;1.83;1.05;;;10.20;81.40;;;;;;5011332;28;20042;-64
2022/02/01 10:47:42;;;;;;;2.05;1.00;;;10.20;81.40;;;;;;5008596;28;20379;-63
